Time;durP1;ratioP1;P1;durP2;ratioP2;P2;SDS_P1;SDS_P2;PMS_P1;PMS_P2;Temp;Humidity;BMP_temperature;BMP_pressure;BME280_temperature;BME280_humidity;BME280_pressure;Samples;Min_cycle;Max_cycle;Signal;HPM_P1;HPM_P2
2023/12/02 00:00:31;;;;;;;0.20;0.20;;;0.90;99.90;;;;;;5035442;28;20057;-66
2023/12/02 00:02:57;;;;;;;0.40;0.40;;;1.00;99.90;;;;;;5048456;28;20156;-66
2023/12/02 00:05:22;;;;;;;6.82;1.75;;;0.90;99.90;;;;;;5046711;28;20190;-65
2023/12/02 00:07:48;;;;;;;0.17;0.17;;;0.90;99.90;;;;;;5046931;28;20044;-66
2023/12/02 00:10:14;;;;;;;0.82;0.82;;;0.90;99.90;;;;;;5043378;28;20044;-65
2023/12/02 00:12:39;;;;;;;0.75;0.75;;;0.90;99.90;;;;;;5041777;28;20221;-66
2023/12/02 00:15:07;;;;;;;0.17;0.17;;;0.90;99.90;;;;;;5042912;28;20053;-66
2023/12/02 00:17:32;;;;;;;1.65;1.23;;;0.90;99.90;;;;;;5037431;28;20102;-65
2023/12/02 00:19:58;;;;;;;0.10;0.10;;;0.90;99.90;;;;;;5038819;28;20128;-65
2023/12/02 00:22:24;;;;;;;0.13;0.13;;;0.90;99.90;;;;;;5047917;28;20477;-66
2023/12/02 00:24:49;;;;;;;0.20;0.20;;;0.90;99.90;;;;;;5046899;28;20056;-65
2023/12/02 00:27:16;;;;;;;0.10;0.10;;;0.90;99.90;;;;;;5046402;28;20044;-65
2023/12/02 00:29:43;;;;;;;0.35;0.35;;;0.90;99.90;;;;;;5041017;28;20121;-65
2023/12/02 00:32:08;;;;;;;13.15;2.55;;;1.10;99.90;;;;;;5035693;28;20535;-66
2023/12/02 00:34:34;;;;;;;0.63;0.55;;;1.10;99.90;;;;;;5041975;28;20126;-66
2023/12/02 00:36:59;;;;;;;0.20;0.20;;;1.10;99.90;;;;;;5038983;28;20085;-65
2023/12/02 00:39:25;;;;;;;1.55;0.63;;;1.10;99.90;;;;;;5043470;28;20146;-65
2023/12/02 00:41:50;;;;;;;0.47;0.47;;;1.10;99.90;;;;;;5043831;28;20037;-66
2023/12/02 00:44:16;;;;;;;0.30;0.30;;;1.00;99.90;;;;;;5043510;28;20110;-65
2023/12/02 00:46:41;;;;;;;0.25;0.25;;;1.10;99.90;;;;;;5046774;28;20473;-66
2023/12/02 00:49:07;;;;;;;0.57;0.52;;;1.20;99.90;;;;;;5043696;28;20049;-65
2023/12/02 00:51:33;;;;;;;2.25;2.03;;;1.20;99.90;;;;;;5038180;28;20041;-65
2023/12/02 00:53:58;;;;;;;1.02;1.02;;;1.30;99.90;;;;;;5037900;28;20053;-66
2023/12/02 00:56:24;;;;;;;0.73;0.73;;;1.20;99.90;;;;;;5055237;28;20041;-66
2023/12/02 00:58:49;;;;;;;2.95;1.02;;;1.20;99.90;;;;;;5037803;28;20052;-65
2023/12/02 01:01:15;;;;;;;1.63;1.00;;;1.10;99.90;;;;;;5043323;28;20049;-65
2023/12/02 01:03:41;;;;;;;0.20;0.20;;;1.10;99.90;;;;;;5034685;28;20052;-66
2023/12/02 01:06:07;;;;;;;0.63;0.63;;;1.10;99.90;;;;;;5047755;28;20048;-66
2023/12/02 01:08:32;;;;;;;0.52;0.52;;;1.10;99.90;;;;;;5040004;28;20124;-65
2023/12/02 01:10:58;;;;;;;0.40;0.40;;;1.10;99.90;;;;;;5042625;28;20041;-65
2023/12/02 01:13:24;;;;;;;3.60;1.50;;;1.10;99.90;;;;;;5049161;28;20045;-66
2023/12/02 01:15:49;;;;;;;0.75;0.75;;;1.10;99.90;;;;;;5035633;28;20049;-65
2023/12/02 01:18:15;;;;;;;0.25;0.25;;;1.10;99.90;;;;;;5039765;28;20536;-65
2023/12/02 01:20:40;;;;;;;1.38;1.33;;;1.10;99.90;;;;;;5049278;28;20029;-66
2023/12/02 01:23:06;;;;;;;5.90;2.67;;;1.10;99.90;;;;;;5042486;28;20544;-66
2023/12/02 01:25:31;;;;;;;0.13;0.13;;;1.20;99.90;;;;;;5047874;28;20051;-65
2023/12/02 01:27:57;;;;;;;0.40;0.40;;;1.20;99.90;;;;;;5048471;28;20083;-65
2023/12/02 01:30:23;;;;;;;3.50;1.67;;;1.20;99.90;;;;;;5045717;28;20041;-65
2023/12/02 01:32:48;;;;;;;0.10;0.10;;;1.20;99.90;;;;;;5040225;28;20041;-65
2023/12/02 01:35:14;;;;;;;0.50;0.50;;;1.20;99.90;;;;;;5043990;28;20063;-65
2023/12/02 01:37:40;;;;;;;0.50;0.50;;;1.10;99.90;;;;;;5044690;28;20052;-66
2023/12/02 01:40:07;;;;;;;0.50;0.50;;;1.20;99.90;;;;;;5038423;28;20037;-66
2023/12/02 01:42:33;;;;;;;0.10;0.10;;;1.10;99.90;;;;;;5046585;28;20131;-65
2023/12/02 01:44:59;;;;;;;2.60;2.40;;;1.10;99.90;;;;;;5048256;28;20136;-66
2023/12/02 01:47:25;;;;;;;0.17;0.17;;;1.10;99.90;;;;;;5043892;28;20041;-66
2023/12/02 01:49:51;;;;;;;0.93;0.93;;;1.00;99.90;;;;;;5041484;28;20331;-66
2023/12/02 01:52:17;;;;;;;1.77;1.67;;;1.10;99.90;;;;;;5040633;28;20045;-66
2023/12/02 01:54:43;;;;;;;0.35;0.35;;;1.10;99.90;;;;;;5044805;28;20377;-66
2023/12/02 01:57:09;;;;;;;0.10;0.10;;;1.00;99.90;;;;;;5039038;28;20044;-65
2023/12/02 01:59:37;;;;;;;0.10;0.10;;;1.00;99.90;;;;;;5045318;28;20072;-65
2023/12/02 02:02:03;;;;;;;0.52;0.52;;;1.00;99.90;;;;;;5045398;28;20389;-66
2023/12/02 02:04:28;;;;;;;0.65;0.65;;;1.00;99.90;;;;;;5042630;28;20111;-65
2023/12/02 02:06:54;;;;;;;0.80;0.80;;;1.10;99.90;;;;;;5044903;28;20059;-65
2023/12/02 02:09:19;;;;;;;0.57;0.57;;;1.10;99.90;;;;;;5037747;28;20068;-65
2023/12/02 02:11:49;;;;;;;0.20;0.20;;;1.10;99.90;;;;;;5038179;28;20098;-65
2023/12/02 02:14:14;;;;;;;0.20;0.20;;;1.10;99.90;;;;;;5045142;28;20381;-65
2023/12/02 02:16:40;;;;;;;0.90;0.90;;;1.10;99.90;;;;;;5045892;28;20041;-65
2023/12/02 02:19:07;;;;;;;0.75;0.75;;;1.10;99.90;;;;;;5034784;28;20775;-66
2023/12/02 02:21:33;;;;;;;0.38;0.38;;;1.10;99.90;;;;;;5039563;28;20041;-65
2023/12/02 02:23:58;;;;;;;0.75;0.75;;;1.20;99.90;;;;;;5047081;28;20049;-66
2023/12/02 02:26:24;;;;;;;1.10;1.10;;;1.20;99.90;;;;;;5041997;28;20068;-66
2023/12/02 02:28:49;;;;;;;0.13;0.13;;;1.20;99.90;;;;;;5041140;28;20053;-65
2023/12/02 02:31:15;;;;;;;0.10;0.10;;;1.20;99.90;;;;;;5045073;28;20049;-65
2023/12/02 02:33:40;;;;;;;0.30;0.30;;;1.20;99.90;;;;;;5044443;28;20049;-65
2023/12/02 02:36:06;;;;;;;0.30;0.30;;;1.20;99.90;;;;;;5035087;28;20045;-66
2023/12/02 02:38:32;;;;;;;1.55;1.45;;;1.30;99.90;;;;;;5043921;28;20040;-66
2023/12/02 02:40:58;;;;;;;0.28;0.28;;;1.20;99.90;;;;;;5041379;28;20559;-65
2023/12/02 02:43:23;;;;;;;0.35;0.35;;;1.20;99.90;;;;;;5045825;28;20041;-65
2023/12/02 02:45:49;;;;;;;0.40;0.40;;;1.20;99.90;;;;;;5038131;28;20584;-65
2023/12/02 02:48:15;;;;;;;0.77;0.77;;;1.10;99.90;;;;;;5054871;28;20128;-64
2023/12/02 02:50:40;;;;;;;0.13;0.13;;;1.20;99.90;;;;;;5046575;28;20567;-65
2023/12/02 02:53:06;;;;;;;0.10;0.10;;;1.20;99.90;;;;;;5042670;28;20537;-65
2023/12/02 02:55:31;;;;;;;0.63;0.63;;;1.10;99.90;;;;;;5040008;28;20095;-65
2023/12/02 02:57:57;;;;;;;0.17;0.17;;;1.10;99.90;;;;;;5044695;28;20098;-65
2023/12/02 03:00:23;;;;;;;0.10;0.10;;;1.10;99.90;;;;;;5046323;28;20120;-65
2023/12/02 03:02:48;;;;;;;0.30;0.30;;;1.10;99.90;;;;;;5042691;28;20049;-65
2023/12/02 03:05:14;;;;;;;8.25;2.35;;;1.20;99.90;;;;;;5047596;28;20056;-65
2023/12/02 03:07:39;;;;;;;0.70;0.70;;;1.20;99.90;;;;;;5046547;28;20052;-65
2023/12/02 03:10:07;;;;;;;1.63;1.52;;;1.20;99.90;;;;;;5048729;28;20492;-65
2023/12/02 03:12:32;;;;;;;0.17;0.17;;;1.20;99.90;;;;;;5042645;28;20048;-65
2023/12/02 03:14:58;;;;;;;0.30;0.30;;;1.20;99.90;;;;;;5040821;28;20550;-65
2023/12/02 03:17:23;;;;;;;0.20;0.20;;;1.20;99.90;;;;;;5043099;28;20531;-65
2023/12/02 03:19:49;;;;;;;0.25;0.25;;;1.30;99.90;;;;;;5045251;28;20044;-65
2023/12/02 03:22:15;;;;;;;2.30;0.60;;;1.20;99.90;;;;;;5037881;28;20052;-65
2023/12/02 03:24:41;;;;;;;0.25;0.25;;;1.20;99.90;;;;;;5056632;28;20041;-65
2023/12/02 03:27:06;;;;;;;0.80;0.80;;;1.20;99.90;;;;;;5046394;28;20029;-65
2023/12/02 03:29:32;;;;;;;0.20;0.20;;;1.20;99.90;;;;;;5038313;28;20510;-65
2023/12/02 03:31:58;;;;;;;0.10;0.10;;;1.30;99.90;;;;;;5046928;28;20037;-65
2023/12/02 03:34:23;;;;;;;0.10;0.10;;;1.20;99.90;;;;;;5051309;28;20500;-65
2023/12/02 03:36:49;;;;;;;0.10;0.10;;;1.30;99.90;;;;;;5042755;28;20040;-65
2023/12/02 03:39:15;;;;;;;0.73;0.73;;;1.30;99.90;;;;;;5044301;28;20206;-65
2023/12/02 03:41:41;;;;;;;0.10;0.10;;;1.20;99.90;;;;;;5043563;28;20044;-65
2023/12/02 03:44:07;;;;;;;0.57;0.57;;;1.20;99.90;;;;;;5044255;28;20044;-65
2023/12/02 03:46:35;;;;;;;0.80;0.68;;;1.20;99.90;;;;;;5041680;28;20102;-66
2023/12/02 03:49:01;;;;;;;0.55;0.55;;;1.20;99.90;;;;;;5045380;28;20052;-66
2023/12/02 03:51:27;;;;;;;0.30;0.30;;;1.20;99.90;;;;;;5044361;28;20045;-66
2023/12/02 03:53:52;;;;;;;1.08;1.05;;;1.10;99.90;;;;;;5040816;28;20053;-66
2023/12/02 03:56:18;;;;;;;0.73;0.73;;;1.20;99.90;;;;;;5040136;28;20488;-66
2023/12/02 03:58:45;;;;;;;0.20;0.20;;;1.20;99.90;;;;;;5045317;28;20175;-66
2023/12/02 04:01:10;;;;;;;1.27;1.23;;;1.20;99.90;;;;;;5059143;28;20057;-66
2023/12/02 04:03:36;;;;;;;1.08;0.95;;;1.20;99.90;;;;;;5038212;28;20102;-66
2023/12/02 04:06:03;;;;;;;1.90;1.80;;;1.20;99.90;;;;;;5037358;28;20388;-66
2023/12/02 04:08:29;;;;;;;0.30;0.30;;;1.20;99.90;;;;;;5043887;28;20072;-66
2023/12/02 04:10:54;;;;;;;0.60;0.60;;;1.10;99.90;;;;;;5049011;28;20570;-65
2023/12/02 04:13:20;;;;;;;0.45;0.45;;;1.20;99.90;;;;;;5048867;28;20694;-66
2023/12/02 04:15:46;;;;;;;2.58;1.23;;;1.20;99.90;;;;;;5042694;28;20141;-65
2023/12/02 04:18:12;;;;;;;1.75;1.65;;;1.20;99.90;;;;;;5049072;28;20115;-65
2023/12/02 04:20:38;;;;;;;1.67;1.58;;;1.20;99.90;;;;;;5044391;28;20277;-65
2023/12/02 04:23:04;;;;;;;0.20;0.20;;;1.10;99.90;;;;;;5048658;28;20049;-66
2023/12/02 04:25:30;;;;;;;0.20;0.20;;;1.10;99.90;;;;;;5048314;28;20049;-65
2023/12/02 04:27:56;;;;;;;0.38;0.38;;;1.10;99.90;;;;;;5046654;28;20049;-66
2023/12/02 04:30:21;;;;;;;0.38;0.38;;;1.10;99.90;;;;;;5038741;28;20060;-66
2023/12/02 04:32:47;;;;;;;0.52;0.52;;;1.00;99.90;;;;;;5048059;28;20052;-65
2023/12/02 04:35:13;;;;;;;1.17;0.45;;;1.00;99.90;;;;;;5040863;28;20048;-65
2023/12/02 04:37:40;;;;;;;0.63;0.63;;;1.00;99.90;;;;;;5047743;28;20090;-66
2023/12/02 04:40:10;;;;;;;0.10;0.10;;;0.90;99.90;;;;;;5047711;28;20038;-65
2023/12/02 04:42:40;;;;;;;0.30;0.30;;;0.90;99.90;;;;;;5047562;28;20048;-66
2023/12/02 04:45:07;;;;;;;0.13;0.13;;;0.90;99.90;;;;;;5046166;28;20051;-66
2023/12/02 04:47:34;;;;;;;0.63;0.63;;;0.90;99.90;;;;;;5046436;28;20487;-66
2023/12/02 04:49:59;;;;;;;1.20;1.20;;;0.90;99.90;;;;;;5040102;28;20045;-66
2023/12/02 04:52:25;;;;;;;0.50;0.50;;;0.80;99.90;;;;;;5044351;28;20045;-66
2023/12/02 04:54:50;;;;;;;0.20;0.20;;;0.90;99.90;;;;;;5035377;28;20049;-66
2023/12/02 04:57:16;;;;;;;0.88;0.80;;;0.90;99.90;;;;;;5045623;28;20049;-66
2023/12/02 04:59:42;;;;;;;0.73;0.73;;;0.90;99.90;;;;;;5046628;28;20037;-66
2023/12/02 05:02:08;;;;;;;0.82;0.82;;;0.80;99.90;;;;;;5039899;28;20047;-66
2023/12/02 05:04:35;;;;;;;0.43;0.43;;;0.90;99.90;;;;;;5048568;28;20507;-66
2023/12/02 05:07:01;;;;;;;3.50;1.08;;;0.90;99.90;;;;;;5048261;28;20120;-66
2023/12/02 05:09:27;;;;;;;0.10;0.10;;;0.90;99.90;;;;;;5057219;28;20045;-66
2023/12/02 05:11:52;;;;;;;0.13;0.13;;;0.90;99.90;;;;;;5046233;28;20076;-66
2023/12/02 05:14:18;;;;;;;0.65;0.65;;;0.90;99.90;;;;;;5045645;28;20051;-66
2023/12/02 05:16:43;;;;;;;0.10;0.10;;;1.00;99.90;;;;;;5042692;28;20052;-66
2023/12/02 05:19:09;;;;;;;0.82;0.82;;;0.90;99.90;;;;;;5041795;28;20049;-66
2023/12/02 05:21:38;;;;;;;0.25;0.25;;;1.00;99.90;;;;;;5043676;28;20040;-66
2023/12/02 05:24:03;;;;;;;0.30;0.30;;;1.00;99.90;;;;;;5048041;28;20539;-66
2023/12/02 05:26:29;;;;;;;2.03;1.83;;;1.00;99.90;;;;;;5047281;28;20132;-66
2023/12/02 05:28:55;;;;;;;0.20;0.20;;;1.00;99.90;;;;;;5038094;28;20128;-66
2023/12/02 05:31:21;;;;;;;0.20;0.20;;;1.00;99.90;;;;;;5047626;28;20689;-66
2023/12/02 05:33:47;;;;;;;0.30;0.30;;;1.00;99.90;;;;;;5048556;28;20484;-66
2023/12/02 05:36:13;;;;;;;0.63;0.63;;;1.00;99.90;;;;;;5035297;28;20048;-66
2023/12/02 05:38:38;;;;;;;0.10;0.10;;;1.00;99.90;;;;;;5045402;28;20060;-66
2023/12/02 05:41:04;;;;;;;1.17;0.68;;;1.10;99.90;;;;;;5049217;28;20065;-66
2023/12/02 05:43:30;;;;;;;0.30;0.30;;;1.10;99.90;;;;;;5048036;28;20053;-66
2023/12/02 05:45:56;;;;;;;0.32;0.32;;;1.00;99.90;;;;;;5041604;28;20037;-66
2023/12/02 05:48:22;;;;;;;0.40;0.40;;;1.00;99.90;;;;;;5046253;28;20052;-66
2023/12/02 05:50:47;;;;;;;0.20;0.20;;;1.00;99.90;;;;;;5046090;28;20045;-66
2023/12/02 05:53:13;;;;;;;0.93;0.93;;;1.00;99.90;;;;;;5043104;28;20072;-66
2023/12/02 05:55:38;;;;;;;0.20;0.20;;;1.00;99.90;;;;;;5046061;28;20049;-66
2023/12/02 05:58:04;;;;;;;0.85;0.85;;;1.00;99.90;;;;;;5035298;28;20045;-66
2023/12/02 06:00:29;;;;;;;3.55;0.85;;;1.00;99.90;;;;;;5043508;28;20061;-66
2023/12/02 06:02:55;;;;;;;0.65;0.65;;;1.00;99.90;;;;;;5043773;28;20662;-66
2023/12/02 06:05:20;;;;;;;0.63;0.47;;;1.10;99.90;;;;;;5043992;28;20038;-66
2023/12/02 06:07:46;;;;;;;0.22;0.22;;;1.10;99.90;;;;;;5041587;28;20127;-66
2023/12/02 06:10:12;;;;;;;0.20;0.20;;;1.20;99.90;;;;;;5047274;28;20523;-66
2023/12/02 06:12:37;;;;;;;0.30;0.30;;;1.20;99.90;;;;;;5063155;28;20040;-66
2023/12/02 06:15:04;;;;;;;0.20;0.20;;;1.20;99.90;;;;;;5041583;28;20052;-66
2023/12/02 06:17:31;;;;;;;0.25;0.25;;;1.20;99.90;;;;;;5043088;28;20039;-66
2023/12/02 06:19:56;;;;;;;0.10;0.10;;;1.20;99.90;;;;;;5037437;28;20045;-66
2023/12/02 06:22:22;;;;;;;0.98;0.98;;;1.10;99.90;;;;;;5043792;28;20044;-66
2023/12/02 06:24:48;;;;;;;2.83;2.50;;;1.10;99.90;;;;;;5038228;28;20041;-66
2023/12/02 06:27:13;;;;;;;0.10;0.10;;;1.10;99.90;;;;;;5042157;28;20068;-66
2023/12/02 06:29:39;;;;;;;0.20;0.20;;;1.10;99.90;;;;;;5047819;28;20110;-66
2023/12/02 06:32:04;;;;;;;1.45;1.35;;;1.10;99.90;;;;;;5060319;28;20065;-66
2023/12/02 06:34:30;;;;;;;1.60;1.50;;;1.10;99.90;;;;;;5039250;28;20053;-66
2023/12/02 06:36:56;;;;;;;0.20;0.20;;;1.10;99.90;;;;;;5043633;28;20044;-66
2023/12/02 06:39:21;;;;;;;0.70;0.70;;;1.10;99.90;;;;;;5035949;28;20076;-66
2023/12/02 06:41:47;;;;;;;0.45;0.45;;;1.10;99.90;;;;;;5046237;28;20045;-66
2023/12/02 06:44:12;;;;;;;0.22;0.22;;;1.10;99.90;;;;;;5036708;28;20045;-66
2023/12/02 06:46:38;;;;;;;0.10;0.10;;;1.10;99.90;;;;;;5043636;28;22023;-66
2023/12/02 06:49:03;;;;;;;1.13;1.05;;;1.20;99.90;;;;;;5038642;28;20047;-66
2023/12/02 06:51:29;;;;;;;0.17;0.17;;;1.20;99.90;;;;;;5043274;28;20041;-66
2023/12/02 06:53:58;;;;;;;0.10;0.10;;;1.20;99.90;;;;;;5037000;28;20356;-66
2023/12/02 06:56:25;;;;;;;0.20;0.20;;;1.20;99.90;;;;;;5039693;28;20049;-66
2023/12/02 06:58:51;;;;;;;0.10;0.10;;;1.30;99.90;;;;;;5047318;28;20076;-66
2023/12/02 07:01:28;;;;;;;0.10;0.10;;;1.30;99.90;;;;;;5043656;28;20518;-66
2023/12/02 07:03:54;;;;;;;0.47;0.47;;;1.30;99.90;;;;;;5039209;28;20051;-66
2023/12/02 07:06:20;;;;;;;0.10;0.10;;;1.30;99.90;;;;;;5046346;28;20114;-66
2023/12/02 07:08:47;;;;;;;3.13;1.20;;;1.30;99.90;;;;;;5042481;28;20374;-66
2023/12/02 07:11:13;;;;;;;0.20;0.20;;;1.30;99.90;;;;;;5044757;28;20045;-66
2023/12/02 07:13:39;;;;;;;0.60;0.60;;;1.30;99.90;;;;;;5037865;28;20098;-66
2023/12/02 07:16:05;;;;;;;1.35;1.25;;;1.40;99.90;;;;;;5038223;28;20506;-66
2023/12/02 07:18:31;;;;;;;0.20;0.20;;;1.40;99.90;;;;;;5047341;28;20781;-66
2023/12/02 07:20:56;;;;;;;0.20;0.20;;;1.40;99.90;;;;;;5041392;28;20041;-66
2023/12/02 07:23:25;;;;;;;1.33;0.77;;;1.30;99.90;;;;;;5039769;28;20047;-66
2023/12/02 07:25:51;;;;;;;0.22;0.22;;;1.40;99.90;;;;;;5046185;28;20075;-66
2023/12/02 07:28:17;;;;;;;0.63;0.63;;;1.30;99.90;;;;;;5035096;28;20041;-66
2023/12/02 07:30:43;;;;;;;1.08;0.75;;;1.30;99.90;;;;;;5046718;28;20033;-66
2023/12/02 07:33:08;;;;;;;0.55;0.55;;;1.40;99.90;;;;;;5045282;28;20659;-66
2023/12/02 07:35:34;;;;;;;0.20;0.20;;;1.40;99.90;;;;;;5041386;28;20052;-66
2023/12/02 07:38:00;;;;;;;0.55;0.55;;;1.40;99.90;;;;;;5042026;28;20152;-66
2023/12/02 07:40:25;;;;;;;0.10;0.10;;;1.40;99.90;;;;;;5045830;28;20137;-66
2023/12/02 07:42:51;;;;;;;0.50;0.50;;;1.40;99.90;;;;;;5043345;28;20128;-66
2023/12/02 07:45:17;;;;;;;4.07;2.28;;;1.40;99.90;;;;;;5042236;28;20499;-67
2023/12/02 07:47:42;;;;;;;1.17;1.10;;;1.50;99.90;;;;;;5047622;28;20745;-66
2023/12/02 07:50:08;;;;;;;0.45;0.45;;;1.50;99.90;;;;;;5048199;28;20092;-66
2023/12/02 07:52:34;;;;;;;0.30;0.30;;;1.60;99.90;;;;;;5042183;28;20448;-66
2023/12/02 07:54:59;;;;;;;0.10;0.10;;;1.50;99.90;;;;;;5045233;28;20060;-66
2023/12/02 07:57:26;;;;;;;0.30;0.30;;;1.50;99.90;;;;;;5044522;28;20041;-66
2023/12/02 07:59:51;;;;;;;1.20;1.20;;;1.50;99.90;;;;;;5045880;28;20480;-66
2023/12/02 08:02:17;;;;;;;0.20;0.20;;;1.60;99.90;;;;;;5034507;28;20080;-66
2023/12/02 08:04:43;;;;;;;0.73;0.70;;;1.60;99.90;;;;;;5048804;28;20060;-67
2023/12/02 08:07:09;;;;;;;0.15;0.15;;;1.70;99.90;;;;;;5046054;28;20037;-66
2023/12/02 08:09:34;;;;;;;0.73;0.73;;;1.70;99.90;;;;;;5038619;28;20083;-66
2023/12/02 08:12:00;;;;;;;0.60;0.60;;;1.70;99.90;;;;;;5048673;28;20040;-66
2023/12/02 08:14:26;;;;;;;0.10;0.10;;;1.70;99.90;;;;;;5040386;28;20063;-66
2023/12/02 08:16:51;;;;;;;1.30;1.27;;;1.80;99.90;;;;;;5059355;28;20042;-66
2023/12/02 08:19:17;;;;;;;0.10;0.10;;;1.80;99.90;;;;;;5043516;28;20048;-66
2023/12/02 08:21:42;;;;;;;1.08;1.05;;;1.80;99.90;;;;;;5048241;28;20045;-66
2023/12/02 08:24:08;;;;;;;0.10;0.10;;;1.90;99.90;;;;;;5040292;28;20499;-66
2023/12/02 08:26:34;;;;;;;0.13;0.13;;;1.90;99.90;;;;;;5047278;28;20076;-66
2023/12/02 08:28:59;;;;;;;0.10;0.10;;;1.90;99.90;;;;;;5047287;28;20539;-66
2023/12/02 08:31:25;;;;;;;0.10;0.10;;;1.90;99.90;;;;;;5039677;28;20613;-66
2023/12/02 08:33:51;;;;;;;0.28;0.28;;;1.90;99.90;;;;;;5045149;28;20498;-66
2023/12/02 08:36:16;;;;;;;0.10;0.10;;;1.90;99.90;;;;;;5042173;28;20086;-67
2023/12/02 08:38:42;;;;;;;0.95;0.85;;;2.00;99.90;;;;;;5048506;28;20121;-66
2023/12/02 08:41:08;;;;;;;0.20;0.20;;;2.00;99.90;;;;;;5041955;28;20572;-66
2023/12/02 08:43:34;;;;;;;0.73;0.70;;;2.00;99.90;;;;;;5040755;28;20045;-67
2023/12/02 08:45:59;;;;;;;0.10;0.10;;;2.00;99.90;;;;;;5042812;28;20077;-66
2023/12/02 08:48:25;;;;;;;0.20;0.20;;;2.00;99.90;;;;;;5037177;28;20033;-66
2023/12/02 08:50:50;;;;;;;3.53;0.95;;;2.00;99.90;;;;;;5047484;28;20049;-66
2023/12/02 08:53:16;;;;;;;0.25;0.25;;;2.00;99.90;;;;;;5047325;28;20056;-66
2023/12/02 08:55:42;;;;;;;0.22;0.22;;;2.10;99.90;;;;;;5038918;28;20072;-66
2023/12/02 08:58:08;;;;;;;0.10;0.10;;;2.10;99.90;;;;;;5044882;28;20048;-66
2023/12/02 09:00:33;;;;;;;2.03;1.75;;;2.10;99.90;;;;;;5045293;28;20041;-67
2023/12/02 09:02:59;;;;;;;0.17;0.17;;;2.10;99.90;;;;;;5038768;28;20055;-66
2023/12/02 09:05:25;;;;;;;0.10;0.10;;;2.10;99.90;;;;;;5043608;28;20077;-66
2023/12/02 09:07:50;;;;;;;0.10;0.10;;;2.20;99.90;;;;;;5048044;28;20045;-66
2023/12/02 09:10:16;;;;;;;0.75;0.75;;;2.20;99.90;;;;;;5045360;28;20040;-66
2023/12/02 09:12:42;;;;;;;0.30;0.30;;;2.20;99.90;;;;;;5044095;28;20139;-66
2023/12/02 09:15:16;;;;;;;0.10;0.10;;;2.30;99.90;;;;;;5038480;28;20125;-67
2023/12/02 09:18:02;;;;;;;0.10;0.10;;;2.30;99.90;;;;;;5042996;28;20087;-66
2023/12/02 09:20:47;;;;;;;0.30;0.30;;;2.40;99.90;;;;;;5037684;28;20057;-66
2023/12/02 09:23:17;;;;;;;0.10;0.10;;;2.40;99.90;;;;;;5040775;28;20048;-66
2023/12/02 09:25:43;;;;;;;0.22;0.22;;;2.50;99.90;;;;;;5047930;28;20506;-66
2023/12/02 09:28:17;;;;;;;1.00;0.75;;;2.50;99.90;;;;;;5036565;28;20057;-66
2023/12/02 09:31:15;;;;;;;0.20;0.20;;;2.50;99.90;;;;;;5047354;28;20125;-66
2023/12/02 09:33:41;;;;;;;0.10;0.10;;;2.60;99.90;;;;;;5046667;28;20108;-66
2023/12/02 09:36:07;;;;;;;0.10;0.10;;;2.70;99.90;;;;;;5037194;28;20526;-66
2023/12/02 09:38:33;;;;;;;0.43;0.43;;;2.80;99.90;;;;;;5046938;28;20086;-66
2023/12/02 09:41:09;;;;;;;0.20;0.20;;;2.80;99.90;;;;;;5041036;28;20041;-66
2023/12/02 09:43:43;;;;;;;0.10;0.10;;;2.80;99.90;;;;;;5041941;28;20053;-66
2023/12/02 09:46:28;;;;;;;0.10;0.10;;;2.90;99.90;;;;;;5045150;28;20083;-67
2023/12/02 09:49:27;;;;;;;0.10;0.10;;;2.90;99.90;;;;;;5058339;28;20052;-66
2023/12/02 09:52:06;;;;;;;0.20;0.20;;;2.90;99.90;;;;;;5042957;28;20095;-66
2023/12/02 09:54:43;;;;;;;0.10;0.10;;;2.90;99.90;;;;;;5036013;28;20481;-67
2023/12/02 09:57:25;;;;;;;0.10;0.10;;;2.90;99.90;;;;;;5040442;28;20132;-66
2023/12/02 10:00:25;;;;;;;0.10;0.10;;;3.00;99.90;;;;;;5057214;28;20439;-66
2023/12/02 10:03:10;;;;;;;0.35;0.35;;;2.90;99.90;;;;;;5025614;28;20489;-66
2023/12/02 10:05:52;;;;;;;0.20;0.20;;;3.00;99.90;;;;;;5044328;28;20052;-66
2023/12/02 10:08:29;;;;;;;0.10;0.10;;;3.00;99.90;;;;;;5035632;28;20458;-67
2023/12/02 10:11:07;;;;;;;0.10;0.10;;;3.00;99.90;;;;;;5040491;28;20077;-66
2023/12/02 10:13:48;;;;;;;0.10;0.10;;;3.10;99.90;;;;;;5047356;28;20124;-66
2023/12/02 10:16:18;;;;;;;0.10;0.10;;;3.20;99.90;;;;;;5036766;28;20836;-66
2023/12/02 10:18:51;;;;;;;0.10;0.10;;;3.30;99.90;;;;;;5047047;28;20373;-66
2023/12/02 10:21:18;;;;;;;;;;;3.40;99.90;;;;;;5035059;28;20049;-66
2023/12/02 10:24:02;;;;;;;0.10;0.10;;;3.40;99.90;;;;;;5038426;28;19959;-66
2023/12/02 10:26:32;;;;;;;0.43;0.43;;;3.40;99.90;;;;;;5042994;28;20044;-66
2023/12/02 10:29:20;;;;;;;0.10;0.10;;;3.50;99.90;;;;;;5037724;28;20099;-67
2023/12/02 10:32:05;;;;;;;0.25;0.25;;;3.50;99.90;;;;;;5041383;28;20049;-67
2023/12/02 10:34:58;;;;;;;0.10;0.10;;;3.50;99.90;;;;;;5034794;28;20495;-67
2023/12/02 10:37:36;;;;;;;0.32;0.32;;;3.50;99.90;;;;;;5045694;28;20116;-67
2023/12/02 10:40:07;;;;;;;0.20;0.20;;;3.50;99.90;;;;;;5039271;28;20057;-66
2023/12/02 10:42:45;;;;;;;0.13;0.13;;;3.50;99.90;;;;;;5040533;28;20050;-67
2023/12/02 10:45:13;;;;;;;0.10;0.10;;;3.50;99.90;;;;;;5043036;28;20060;-67
2023/12/02 10:47:39;;;;;;;0.10;0.10;;;3.50;99.90;;;;;;5039975;28;20108;-67
2023/12/02 10:50:06;;;;;;;0.10;0.10;;;3.50;99.90;;;;;;5038622;28;20049;-67
2023/12/02 10:52:33;;;;;;;0.15;0.15;;;3.50;99.90;;;;;;5038183;28;20041;-67
2023/12/02 10:55:01;;;;;;;0.55;0.55;;;3.50;99.90;;;;;;5043811;28;20037;-67
2023/12/02 10:57:27;;;;;;;0.10;0.10;;;3.50;99.90;;;;;;5044391;28;20115;-67
2023/12/02 11:00:06;;;;;;;0.10;0.10;;;3.50;99.90;;;;;;5044252;28;20575;-67
2023/12/02 11:02:49;;;;;;;0.85;0.85;;;3.50;99.90;;;;;;5038569;28;20058;-67
2023/12/02 11:05:23;;;;;;;0.10;0.10;;;3.50;99.90;;;;;;5037745;28;20038;-67
2023/12/02 11:07:54;;;;;;;0.10;0.10;;;3.50;99.90;;;;;;5045754;28;20041;-67
2023/12/02 11:10:31;;;;;;;0.10;0.10;;;3.50;99.90;;;;;;5036016;28;20485;-67
2023/12/02 11:13:02;;;;;;;0.77;0.75;;;3.60;99.90;;;;;;5040087;28;20048;-67
2023/12/02 11:15:29;;;;;;;0.10;0.10;;;3.60;99.90;;;;;;5036670;28;20105;-66
2023/12/02 11:18:04;;;;;;;0.10;0.10;;;3.60;99.90;;;;;;5036790;28;20049;-67
2023/12/02 11:20:52;;;;;;;0.00;0.00;;;3.50;99.90;;;;;;5047019;28;20037;-67
2023/12/02 11:23:42;;;;;;;0.10;0.10;;;3.60;99.90;;;;;;5046006;28;20040;-66
2023/12/02 11:26:22;;;;;;;0.10;0.10;;;3.60;99.90;;;;;;5045850;28;20049;-66
2023/12/02 11:29:05;;;;;;;0.10;0.10;;;3.60;99.90;;;;;;5035386;28;20102;-66
2023/12/02 11:31:53;;;;;;;0.10;0.10;;;3.60;99.90;;;;;;5036895;28;20133;-66
2023/12/02 11:35:02;;;;;;;0.10;0.10;;;3.60;99.90;;;;;;5043494;28;20045;-67
2023/12/02 11:37:31;;;;;;;0.10;0.10;;;3.50;99.90;;;;;;5028097;28;20057;-66
2023/12/02 11:40:17;;;;;;;0.10;0.10;;;3.50;99.90;;;;;;5045144;28;20123;-66
2023/12/02 11:42:56;;;;;;;0.30;0.30;;;3.50;99.90;;;;;;5042637;28;20060;-66
2023/12/02 11:45:42;;;;;;;0.08;0.08;;;3.60;99.90;;;;;;5049675;28;20086;-66
2023/12/02 11:48:26;;;;;;;0.10;0.10;;;3.60;99.90;;;;;;5034839;28;20056;-66
2023/12/02 11:51:17;;;;;;;0.10;0.10;;;3.60;99.90;;;;;;5036147;28;20055;-66
2023/12/02 11:53:45;;;;;;;0.10;0.10;;;3.60;99.90;;;;;;5043217;28;20048;-66
2023/12/02 11:56:16;;;;;;;0.10;0.10;;;3.60;99.90;;;;;;5040743;28;20128;-66
2023/12/02 11:58:50;;;;;;;0.43;0.43;;;3.60;99.90;;;;;;5046013;28;20041;-66
2023/12/02 12:01:40;;;;;;;0.10;0.10;;;3.60;99.90;;;;;;5039964;28;20463;-66
2023/12/02 12:04:11;;;;;;;0.10;0.10;;;3.60;99.90;;;;;;5044455;28;20052;-66
2023/12/02 12:07:14;;;;;;;0.10;0.10;;;3.60;99.90;;;;;;5043327;28;20394;-66
2023/12/02 12:10:07;;;;;;;0.52;0.52;;;3.60;99.90;;;;;;5049392;28;20758;-66
2023/12/02 12:12:36;;;;;;;0.10;0.10;;;3.60;99.90;;;;;;5038264;28;20131;-66
2023/12/02 12:15:02;;;;;;;0.25;0.25;;;3.60;99.90;;;;;;5048130;28;20040;-66
2023/12/02 12:17:29;;;;;;;0.10;0.10;;;3.60;99.90;;;;;;5047046;28;20435;-66
2023/12/02 12:19:59;;;;;;;0.15;0.15;;;3.60;99.90;;;;;;5035405;28;20072;-66
2023/12/02 12:22:27;;;;;;;0.10;0.10;;;3.60;99.90;;;;;;5045875;28;20044;-66
2023/12/02 12:24:53;;;;;;;0.10;0.10;;;3.70;99.90;;;;;;5049877;28;20052;-66
2023/12/02 12:27:18;;;;;;;0.10;0.10;;;3.60;99.90;;;;;;5041162;28;20037;-66
2023/12/02 12:29:55;;;;;;;0.10;0.10;;;3.60;99.90;;;;;;5042462;28;20045;-66
2023/12/02 12:32:21;;;;;;;0.10;0.10;;;3.60;99.90;;;;;;5049659;28;20045;-66
2023/12/02 12:34:52;;;;;;;0.10;0.10;;;3.70;99.90;;;;;;5042979;28;20079;-66
2023/12/02 12:37:18;;;;;;;0.20;0.20;;;3.70;99.90;;;;;;5064358;28;20048;-67
2023/12/02 12:39:44;;;;;;;0.10;0.10;;;3.80;99.90;;;;;;5039203;28;20033;-66
2023/12/02 12:42:11;;;;;;;0.10;0.10;;;3.80;99.90;;;;;;5049090;28;20400;-66
2023/12/02 12:44:39;;;;;;;0.10;0.10;;;3.80;99.90;;;;;;5037732;28;20473;-66
2023/12/02 12:47:10;;;;;;;0.50;0.50;;;3.90;99.90;;;;;;5033413;28;20527;-66
2023/12/02 12:49:43;;;;;;;0.10;0.10;;;3.90;99.90;;;;;;5048218;28;20783;-66
2023/12/02 12:52:20;;;;;;;0.10;0.10;;;3.90;99.90;;;;;;5046570;28;20044;-66
2023/12/02 12:54:58;;;;;;;0.10;0.10;;;4.00;99.90;;;;;;5039721;28;20567;-66
2023/12/02 12:57:44;;;;;;;0.20;0.20;;;3.90;99.90;;;;;;5045606;28;20124;-66
2023/12/02 13:00:12;;;;;;;0.10;0.10;;;4.00;99.90;;;;;;5041150;28;20079;-66
2023/12/02 13:03:06;;;;;;;0.10;0.10;;;4.00;99.90;;;;;;5048320;28;20132;-66
2023/12/02 13:05:40;;;;;;;0.13;0.13;;;4.00;99.90;;;;;;5038246;28;20054;-66